Overview Statistics Trail Chart Weather Telemetry Raw packets
 

This is the latest recevied weather packets stored in our database for station/object N1ICS-1. If no packets are shown the sender has not sent any weather packets the latest 10 day(s).

<< 1 2 3 4 >>
Time Temp. Humidity Pressure Rain* Wind** Luminosity Snow
1788602402 19.44° C 99% 1016.2 hPa 0 mm - 0 W/m² -
1788602102 19.44° C 99% 1016.9 hPa 0.51 mm - 0 W/m² -
1788601501 19.44° C 99% 1016.8 hPa 0.51 mm - 0 W/m² -
1788601202 19.44° C 99% 1017.3 hPa 1.27 mm - 0 W/m² -
1788600902 19.44° C 99% 1016.2 hPa 1.78 mm - 0 W/m² -
1788599702 18.89° C 99% 1016.5 hPa 0 mm - 0 W/m² -
1788599402 18.89° C 99% 1016.4 hPa 1.27 mm - 0 W/m² -
1788599101 18.89° C 99% 1016.8 hPa 3.56 mm - 0 W/m² -
1788598802 18.89° C 99% 1016.8 hPa 3.56 mm - 0 W/m² -
1788598502 18.89° C 99% 1017.4 hPa 3.56 mm - 0 W/m² -
1788597902 18.89° C 99% 1017.7 hPa 1.78 mm - 0 W/m² -
1788597602 18.89° C 99% 1017.6 hPa 1.27 mm - 0 W/m² -
1788597301 18.89° C 99% 1017.4 hPa 1.27 mm - 0 W/m² -
1788596702 18.89° C 99% 1017.6 hPa 0.51 mm - 0 W/m² -
1788596403 18.89° C 99% 1017.9 hPa 3.05 mm - 0 W/m² -
1788596102 18.89° C 99% 1017.6 hPa 10.16 mm - 0 W/m² -
1788595502 18.89° C 99% 1018.1 hPa 3.56 mm - 0 W/m² -
1788595202 18.89° C 99% 1018.1 hPa 6.6 mm - 0 W/m² -
1788594902 18.89° C 99% 1017.9 hPa 8.89 mm - 0 W/m² -
1788594605 18.89° C 99% 1018 hPa 6.1 mm - 0 W/m² -
1788594002 18.33° C 99% 1017.7 hPa 21.59 mm - 0 W/m² -
1788593702 18.33° C 99% 1017.6 hPa 20.32 mm - 0 W/m² -
1788593403 18.89° C 99% 1017.3 hPa 6.1 mm - 0 W/m² -
1788593102 19.44° C 98% 1017.4 hPa 0.51 mm - 0 W/m² -
1788592819 20° C 97% 1016.9 hPa 0 mm - 0 W/m² -

* Rain latest hour (hover to see other rain measurements)
** Current wind speed in m/s (hover to see current wind gust speed)